Time;durP1;ratioP1;P1;durP2;ratioP2;P2;SDS_P1;SDS_P2;PMS_P1;PMS_P2;Temp;Humidity;BMP_temperature;BMP_pressure;BME280_temperature;BME280_humidity;BME280_pressure;Samples;Min_cycle;Max_cycle;Signal;HPM_P1;HPM_P2
2022/06/18 00:00:24;;;;;;;7.85;2.42;;;22.30;56.70;;;;;;5053943;28;20066;-49
2022/06/18 00:02:50;;;;;;;5.72;2.10;;;22.20;56.60;;;;;;5053558;28;20032;-50
2022/06/18 00:05:18;;;;;;;4.43;2.10;;;22.20;56.80;;;;;;5053365;28;20120;-48
2022/06/18 00:07:52;;;;;;;5.38;2.72;;;22.30;56.80;;;;;;5053251;28;20021;-49
2022/06/18 00:10:23;;;;;;;5.38;2.40;;;22.30;56.80;;;;;;5053448;28;20091;-50
2022/06/18 00:15:37;;;;;;;5.07;2.78;;;22.30;56.80;;;;;;5053664;28;20039;-50
2022/06/18 00:18:05;;;;;;;4.20;2.60;;;22.20;57.10;;;;;;5052968;28;20507;-50
2022/06/18 00:20:34;;;;;;;7.38;2.25;;;22.30;57.20;;;;;;5053507;28;20035;-50
2022/06/18 00:23:01;;;;;;;3.35;2.22;;;22.30;56.80;;;;;;5053566;28;20403;-50
2022/06/18 00:25:32;;;;;;;4.07;2.17;;;22.30;56.70;;;;;;5053041;28;20017;-49
2022/06/18 00:27:59;;;;;;;5.65;2.28;;;22.30;57.20;;;;;;5053254;28;20392;-49
2022/06/18 00:30:27;;;;;;;3.15;2.30;;;22.30;57.10;;;;;;5052988;28;20029;-51
2022/06/18 00:32:53;;;;;;;4.70;2.60;;;22.20;57.30;;;;;;5053279;28;20040;-49
2022/06/18 00:35:19;;;;;;;2.78;2.10;;;22.20;57.60;;;;;;5052997;28;20550;-52
2022/06/18 00:37:46;;;;;;;3.95;2.78;;;22.20;57.40;;;;;;5052962;28;20024;-51
2022/06/18 00:40:23;;;;;;;5.10;2.67;;;22.10;57.60;;;;;;5051693;28;20017;-49
2022/06/18 00:42:49;;;;;;;8.48;2.75;;;22.20;57.30;;;;;;5052481;28;20021;-49
2022/06/18 00:45:27;;;;;;;5.10;2.60;;;22.30;57.40;;;;;;5051653;28;20025;-50
2022/06/18 00:48:13;;;;;;;4.20;2.42;;;22.30;57.30;;;;;;5053254;28;20029;-51
2022/06/18 00:50:46;;;;;;;6.32;3.10;;;22.10;57.70;;;;;;5051956;28;20025;-50
2022/06/18 00:53:17;;;;;;;3.17;2.53;;;22.10;58.00;;;;;;5051622;28;20424;-50
2022/06/18 00:55:45;;;;;;;4.15;2.22;;;22.10;57.90;;;;;;5053343;28;20067;-52
2022/06/18 00:58:23;;;;;;;4.22;2.60;;;22.20;57.50;;;;;;5051213;28;20097;-53
2022/06/18 01:00:50;;;;;;;5.15;2.30;;;22.10;57.60;;;;;;5051488;28;20025;-52
2022/06/18 01:03:25;;;;;;;4.15;2.00;;;22.20;57.60;;;;;;5052964;28;20477;-52
2022/06/18 01:05:52;;;;;;;4.05;2.05;;;22.30;57.30;;;;;;5056485;28;20028;-52
2022/06/18 01:08:21;;;;;;;4.03;2.75;;;22.20;57.30;;;;;;5056305;28;20067;-50
2022/06/18 01:10:54;;;;;;;3.83;2.30;;;22.20;57.40;;;;;;5056646;28;20099;-49
2022/06/18 01:13:25;;;;;;;6.43;2.40;;;22.10;57.90;;;;;;5056235;28;20481;-52
2022/06/18 01:15:54;;;;;;;2.60;2.30;;;22.00;58.10;;;;;;5056577;28;20040;-50
2022/06/18 01:18:20;;;;;;;2.80;2.40;;;22.00;58.20;;;;;;5055849;28;20401;-52
2022/06/18 01:20:51;;;;;;;4.15;2.47;;;22.00;58.20;;;;;;5055926;28;20045;-52
2022/06/18 01:23:22;;;;;;;3.88;2.17;;;21.90;58.20;;;;;;5056287;28;20027;-50
2022/06/18 01:25:48;;;;;;;3.20;2.55;;;21.90;58.50;;;;;;5056147;28;20035;-53
2022/06/18 01:28:18;;;;;;;3.25;2.50;;;21.80;58.70;;;;;;5054287;28;20112;-51
2022/06/18 01:30:44;;;;;;;3.20;2.63;;;21.80;59.10;;;;;;5055497;28;20024;-48
2022/06/18 01:33:11;;;;;;;6.03;1.92;;;21.70;59.40;;;;;;5055675;28;20120;-51
2022/06/18 01:35:40;;;;;;;4.40;2.80;;;21.70;59.40;;;;;;5054416;28;20035;-52
2022/06/18 01:38:05;;;;;;;8.10;2.63;;;21.70;59.40;;;;;;5055647;28;20032;-50
2022/06/18 01:43:48;;;;;;;5.65;2.45;;;21.50;60.30;;;;;;5054969;28;20048;-50
2022/06/18 01:46:14;;;;;;;4.13;2.45;;;21.50;60.60;;;;;;5055578;28;20357;-52
2022/06/18 01:48:42;;;;;;;3.75;2.35;;;21.70;60.00;;;;;;5055676;28;20025;-49
2022/06/18 01:51:18;;;;;;;3.08;1.70;;;21.60;60.00;;;;;;5055511;28;20059;-51
2022/06/18 01:53:53;;;;;;;4.90;2.15;;;21.70;59.70;;;;;;5055689;28;20029;-49
2022/06/18 01:56:31;;;;;;;3.78;2.55;;;21.50;60.20;;;;;;5055680;28;20414;-53
2022/06/18 01:59:02;;;;;;;5.45;2.45;;;21.50;60.40;;;;;;5055187;28;20025;-49
2022/06/18 02:01:32;;;;;;;7.85;3.15;;;21.40;60.70;;;;;;5054036;28;20055;-52
2022/06/18 02:04:00;;;;;;;2.25;2.05;;;21.60;60.00;;;;;;5055383;28;20469;-50
2022/06/18 02:06:27;;;;;;;3.53;2.50;;;21.60;59.80;;;;;;5053872;28;20480;-51
2022/06/18 02:08:53;;;;;;;8.55;1.90;;;21.70;59.60;;;;;;5055181;28;20104;-51
2022/06/18 02:11:21;;;;;;;6.20;2.63;;;21.70;59.50;;;;;;5054463;28;20025;-49
2022/06/18 02:14:00;;;;;;;5.78;2.10;;;21.80;59.30;;;;;;5054343;28;20373;-48
2022/06/18 02:16:30;;;;;;;3.40;2.22;;;21.80;59.10;;;;;;5054651;28;20029;-49
2022/06/18 02:18:59;;;;;;;3.25;2.35;;;21.80;58.90;;;;;;5053885;28;20039;-52
2022/06/18 02:21:25;;;;;;;3.30;2.03;;;21.80;58.90;;;;;;5055419;28;20021;-50
2022/06/18 02:23:54;;;;;;;5.10;2.13;;;21.90;58.60;;;;;;5055001;28;20473;-51
2022/06/18 02:26:22;;;;;;;3.88;2.13;;;21.80;58.60;;;;;;5055282;28;20075;-49
2022/06/18 02:28:50;;;;;;;5.18;2.22;;;21.80;58.60;;;;;;5055173;28;20029;-50
2022/06/18 02:31:25;;;;;;;6.80;2.40;;;21.80;58.70;;;;;;5055070;28;20017;-50
2022/06/18 02:33:53;;;;;;;5.30;2.78;;;21.80;58.70;;;;;;5055097;28;20372;-50
2022/06/18 02:36:21;;;;;;;4.47;2.00;;;21.90;58.40;;;;;;5054661;28;20412;-49
2022/06/18 02:38:48;;;;;;;4.85;2.50;;;21.80;58.90;;;;;;5054571;28;20074;-53
2022/06/18 02:41:14;;;;;;;3.13;2.17;;;21.90;58.20;;;;;;5053498;28;20061;-49
2022/06/18 02:43:42;;;;;;;3.22;1.85;;;21.90;58.20;;;;;;5053404;28;20051;-49
2022/06/18 02:46:08;;;;;;;2.85;1.95;;;21.90;58.30;;;;;;5053171;28;20032;-48
2022/06/18 02:48:37;;;;;;;5.22;2.20;;;21.90;58.20;;;;;;5054501;28;20025;-49
2022/06/18 02:51:04;;;;;;;3.95;2.10;;;22.00;58.10;;;;;;5055183;28;20052;-49
2022/06/18 20:15:10;;;;;;;13.85;5.80;;;26.50;59.00;;;;;;5071445;28;20378;-37
2022/06/18 20:17:36;;;;;;;11.95;5.00;;;26.50;59.10;;;;;;5070695;28;20021;-38
2022/06/18 20:20:03;;;;;;;8.60;4.25;;;26.50;59.00;;;;;;5070351;28;20020;-38
2022/06/18 20:22:29;;;;;;;11.40;5.78;;;26.50;59.00;;;;;;5071786;28;20496;-37
2022/06/18 20:24:54;;;;;;;11.07;4.32;;;26.50;59.10;;;;;;5070415;28;20056;-37
2022/06/18 20:27:21;;;;;;;12.98;5.03;;;26.50;59.30;;;;;;5070430;28;20032;-37
2022/06/18 20:29:47;;;;;;;14.55;4.78;;;26.40;59.40;;;;;;5070341;28;20044;-37
2022/06/18 20:32:14;;;;;;;8.27;4.32;;;26.40;59.50;;;;;;5069809;28;20361;-37
2022/06/18 20:34:39;;;;;;;12.23;4.72;;;26.40;59.60;;;;;;5070044;28;20452;-37
2022/06/18 20:37:05;;;;;;;16.08;5.05;;;26.30;59.80;;;;;;5069907;28;20096;-38
2022/06/18 20:39:31;;;;;;;8.25;4.93;;;26.30;60.10;;;;;;5069079;28;20112;-37
2022/06/18 20:42:01;;;;;;;7.15;4.28;;;26.30;60.20;;;;;;5069397;28;20040;-38
2022/06/18 20:44:26;;;;;;;13.85;5.05;;;26.20;60.40;;;;;;5069984;28;20162;-38
2022/06/18 20:46:52;;;;;;;19.42;4.90;;;26.20;60.50;;;;;;5069737;28;20476;-38
2022/06/18 20:49:19;;;;;;;7.10;4.47;;;26.20;60.60;;;;;;5069631;28;20096;-38
2022/06/18 20:51:48;;;;;;;6.47;5.28;;;26.10;60.90;;;;;;5071787;28;20039;-38
2022/06/18 20:57:13;;;;;;;12.40;5.13;;;26.00;61.30;;;;;;5070662;28;20043;-38
2022/06/18 20:59:42;;;;;;;13.65;5.57;;;25.90;61.50;;;;;;5068990;28;20158;-37
2022/06/18 21:02:13;;;;;;;14.33;5.73;;;25.90;61.50;;;;;;5068679;28;20381;-38
2022/06/18 21:04:39;;;;;;;10.80;4.68;;;25.80;61.70;;;;;;5070650;28;20028;-38
2022/06/18 21:07:06;;;;;;;7.70;5.45;;;25.80;62.00;;;;;;5070689;28;20060;-38
2022/06/18 21:09:32;;;;;;;9.73;4.35;;;25.80;62.10;;;;;;5069575;28;20028;-38
2022/06/18 21:11:58;;;;;;;11.50;4.40;;;25.70;62.40;;;;;;5069190;28;20365;-38
2022/06/18 21:14:26;;;;;;;10.95;4.88;;;25.70;62.50;;;;;;5067718;28;20048;-38
2022/06/18 21:16:52;;;;;;;7.20;4.82;;;25.60;62.60;;;;;;5067645;28;20037;-38
2022/06/18 21:19:18;;;;;;;8.30;4.28;;;25.70;62.80;;;;;;5069046;28;20105;-37
2022/06/18 21:21:47;;;;;;;6.95;4.88;;;25.60;63.00;;;;;;5067828;28;20040;-38
2022/06/18 21:24:14;;;;;;;10.98;4.93;;;25.50;63.10;;;;;;5069937;28;20052;-38
2022/06/18 21:26:40;;;;;;;13.82;5.32;;;25.50;63.20;;;;;;5055191;28;20028;-36
2022/06/18 21:29:06;;;;;;;9.98;4.28;;;25.40;63.40;;;;;;5055802;28;20032;-37
2022/06/18 21:37:01;;;;;;;10.43;5.60;;;25.20;64.10;;;;;;5056422;28;20036;-38
2022/06/18 21:39:33;;;;;;;8.57;5.35;;;25.20;64.30;;;;;;5055635;28;20017;-39
2022/06/18 21:42:03;;;;;;;11.25;5.15;;;25.20;64.30;;;;;;5056752;28;20461;-37
2022/06/18 21:44:29;;;;;;;7.22;4.60;;;25.10;64.70;;;;;;5055393;28;20107;-37
2022/06/18 21:46:57;;;;;;;11.15;4.70;;;25.20;64.50;;;;;;5055693;28;20057;-38
2022/06/18 21:49:27;;;;;;;8.25;3.95;;;25.10;64.80;;;;;;5054656;28;20101;-37
2022/06/18 21:51:54;;;;;;;11.40;4.38;;;25.00;64.90;;;;;;5053890;28;20029;-37
2022/06/18 21:54:22;;;;;;;7.63;4.18;;;25.00;65.20;;;;;;5054129;28;20182;-37
2022/06/18 21:56:55;;;;;;;5.80;4.68;;;24.90;65.50;;;;;;5055440;28;20025;-37
2022/06/18 21:59:23;;;;;;;9.70;4.57;;;24.90;65.70;;;;;;5055233;28;20054;-38
2022/06/18 22:01:50;;;;;;;7.40;4.60;;;24.80;65.90;;;;;;5055046;28;20380;-37
2022/06/18 22:04:20;;;;;;;8.55;3.75;;;24.80;66.10;;;;;;5054876;28;20029;-37
2022/06/18 22:06:47;;;;;;;9.80;4.82;;;24.70;66.40;;;;;;5055191;28;20044;-38
2022/06/18 22:09:12;;;;;;;11.43;4.70;;;24.60;66.70;;;;;;5054991;28;20104;-37
2022/06/18 22:11:38;;;;;;;11.32;4.40;;;24.50;67.00;;;;;;5054973;28;20079;-37
2022/06/18 22:19:32;;;;;;;7.03;4.28;;;24.40;67.60;;;;;;5055103;28;20107;-45
2022/06/18 22:21:58;;;;;;;8.63;4.72;;;24.40;67.80;;;;;;5054617;28;20481;-37
2022/06/18 22:24:24;;;;;;;5.50;3.70;;;24.30;67.80;;;;;;5053290;28;20053;-37
2022/06/18 22:26:51;;;;;;;16.67;3.92;;;24.30;68.10;;;;;;5053275;28;20031;-38
2022/06/18 22:29:17;;;;;;;10.10;4.55;;;24.20;68.20;;;;;;5053324;28;20021;-37
2022/06/18 22:31:43;;;;;;;5.43;3.72;;;24.10;68.60;;;;;;5054611;28;20104;-37
2022/06/18 22:34:09;;;;;;;7.35;3.70;;;24.00;68.90;;;;;;5054592;28;20524;-38
2022/06/18 22:36:35;;;;;;;7.45;4.57;;;23.80;69.20;;;;;;5053520;28;20104;-38
2022/06/18 22:39:00;;;;;;;7.18;3.75;;;23.80;69.60;;;;;;5054474;28;20068;-38
2022/06/18 22:41:38;;;;;;;9.10;3.90;;;23.80;69.80;;;;;;5054335;28;20021;-38
2022/06/18 22:44:13;;;;;;;7.45;3.90;;;23.70;70.00;;;;;;5054263;28;20057;-38
2022/06/18 22:46:41;;;;;;;13.77;4.65;;;23.70;70.20;;;;;;5054849;28;20025;-37
2022/06/18 22:49:10;;;;;;;9.88;4.03;;;23.60;70.40;;;;;;5054460;28;20053;-37
2022/06/18 22:51:37;;;;;;;13.63;3.72;;;23.60;70.50;;;;;;5054313;28;20031;-37
2022/06/18 22:54:03;;;;;;;10.85;3.55;;;23.50;70.70;;;;;;5054251;28;20399;-37
2022/06/18 22:56:29;;;;;;;6.70;3.65;;;23.30;71.00;;;;;;5054053;28;20112;-37
2022/06/18 22:58:55;;;;;;;13.55;4.03;;;23.30;71.20;;;;;;5054216;28;20036;-37
2022/06/18 23:01:21;;;;;;;7.68;3.38;;;23.20;71.40;;;;;;5053877;28;20035;-36
2022/06/18 23:03:47;;;;;;;4.50;2.85;;;23.30;71.60;;;;;;5053954;28;20473;-37
2022/06/18 23:06:20;;;;;;;11.25;4.13;;;23.20;71.70;;;;;;5053711;28;20032;-36
2022/06/18 23:08:53;;;;;;;7.45;3.28;;;23.10;71.80;;;;;;5054434;28;20078;-38
2022/06/18 23:14:08;;;;;;;5.45;3.35;;;23.00;72.00;;;;;;5053773;28;20417;-36
2022/06/18 23:16:33;;;;;;;5.13;2.88;;;23.00;72.00;;;;;;5054034;28;20017;-37
2022/06/18 23:19:01;;;;;;;5.65;2.80;;;22.90;72.00;;;;;;5052492;28;20032;-41
2022/06/18 23:21:29;;;;;;;7.40;3.33;;;22.90;72.10;;;;;;5053900;28;20147;-37
2022/06/18 23:23:55;;;;;;;2.55;2.03;;;22.80;72.10;;;;;;5052215;28;20021;-37
2022/06/18 23:26:21;;;;;;;9.27;3.22;;;22.80;72.50;;;;;;5053496;28;20039;-37
2022/06/18 23:28:47;;;;;;;5.60;4.32;;;22.80;72.30;;;;;;5053461;28;20032;-37
2022/06/18 23:31:13;;;;;;;4.65;2.88;;;22.80;72.40;;;;;;5053691;28;20170;-39
2022/06/18 23:33:40;;;;;;;3.90;2.75;;;22.70;72.70;;;;;;5053177;28;20028;-38
2022/06/18 23:36:06;;;;;;;7.43;3.70;;;22.60;73.00;;;;;;5053398;28;20043;-38
2022/06/18 23:38:34;;;;;;;7.97;2.85;;;22.60;73.10;;;;;;5053423;28;20079;-37
2022/06/18 23:41:00;;;;;;;10.15;3.65;;;22.60;73.20;;;;;;5053416;28;20029;-37
2022/06/18 23:43:30;;;;;;;7.78;3.17;;;22.40;73.50;;;;;;5053423;28;20100;-37
2022/06/18 23:45:58;;;;;;;;;;;22.40;73.70;;;;;;5053842;28;20029;-37
2022/06/18 23:48:24;;;;;;;6.40;3.17;;;22.40;73.90;;;;;;5053073;28;19905;-38
2022/06/18 23:50:51;;;;;;;10.02;3.03;;;22.40;73.80;;;;;;5052071;28;20040;-37
2022/06/18 23:53:16;;;;;;;5.80;3.95;;;22.30;73.70;;;;;;5053093;28;20033;-38
2022/06/18 23:55:50;;;;;;;6.70;3.45;;;22.30;73.90;;;;;;5053671;28;20028;-38
2022/06/18 23:58:16;;;;;;;3.83;2.95;;;22.20;73.70;;;;;;5053505;28;20024;-37
